Time;durP1;ratioP1;P1;durP2;ratioP2;P2;SDS_P1;SDS_P2;PMS_P1;PMS_P2;Temp;Humidity;BMP_temperature;BMP_pressure;BME280_temperature;BME280_humidity;BME280_pressure;Samples;Min_cycle;Max_cycle;Signal;HPM_P1;HPM_P2
2022/08/02 00:01:28;;;;;;;3.83;3.35;;;;;;;;;;5008084;28;20037;-69
2022/08/02 00:03:53;;;;;;;3.80;3.40;;;;;;;;;;5008115;28;20161;-69
2022/08/02 00:06:19;;;;;;;4.07;3.25;;;;;;;;;;5008240;28;20080;-69
2022/08/02 00:08:44;;;;;;;3.88;3.00;;;;;;;;;;5013312;28;20025;-70
2022/08/02 00:11:09;;;;;;;4.30;3.60;;;;;;;;;;5009935;28;20030;-69
2022/08/02 00:13:35;;;;;;;3.90;3.20;;;;;;;;;;5015782;28;20444;-69
2022/08/02 00:16:00;;;;;;;4.20;3.30;;;;;;;;;;5008177;28;20029;-69
2022/08/02 00:18:25;;;;;;;3.95;3.15;;;;;;;;;;5013449;28;20034;-69
2022/08/02 00:20:51;;;;;;;4.18;3.28;;;;;;;;;;5015684;28;20060;-69
2022/08/02 00:23:16;;;;;;;4.75;3.47;;;;;;;;;;5006465;28;20030;-70
2022/08/02 00:25:41;;;;;;;4.88;3.60;;;;;;;;;;5000915;28;20041;-69
2022/08/02 00:28:06;;;;;;;4.75;3.85;;;;;;;;;;5009985;28;20041;-69
2022/08/02 00:30:32;;;;;;;4.50;3.67;;;;;;;;;;5019397;28;20033;-69
2022/08/02 00:32:57;;;;;;;3.67;3.38;;;;;;;;;;5027807;28;20037;-69
2022/08/02 00:35:23;;;;;;;3.72;3.15;;;;;;;;;;5027525;28;20411;-69
2022/08/02 00:37:48;;;;;;;4.22;3.47;;;;;;;;;;5021260;28;20029;-69
2022/08/02 00:40:14;;;;;;;3.70;3.40;;;;;;;;;;5019010;28;20678;-69
2022/08/02 00:42:40;;;;;;;3.60;3.30;;;;;;;;;;5027956;28;20037;-69
2022/08/02 00:45:06;;;;;;;3.50;3.20;;;;;;;;;;5028053;28;20079;-69
2022/08/02 00:47:31;;;;;;;3.60;3.30;;;;;;;;;;5012096;28;20029;-69
2022/08/02 00:49:56;;;;;;;4.88;3.13;;;;;;;;;;5016855;28;20038;-69
2022/08/02 00:52:22;;;;;;;3.80;3.20;;;;;;;;;;5026317;28;20087;-69
2022/08/02 00:54:48;;;;;;;4.13;3.20;;;;;;;;;;5030039;28;20029;-69
2022/08/02 00:57:13;;;;;;;3.78;3.38;;;;;;;;;;5026584;28;20037;-69
2022/08/02 00:59:40;;;;;;;3.75;3.35;;;;;;;;;;5019818;28;20033;-69
2022/08/02 01:02:06;;;;;;;4.10;3.67;;;;;;;;;;5027567;28;20032;-69
2022/08/02 01:04:31;;;;;;;3.65;3.33;;;;;;;;;;5030985;28;20021;-69
2022/08/02 01:06:56;;;;;;;4.78;3.60;;;;;;;;;;5027503;28;20025;-69
2022/08/02 01:09:21;;;;;;;3.67;3.38;;;;;;;;;;5020586;28;20026;-69
2022/08/02 01:11:47;;;;;;;3.90;3.60;;;;;;;;;;5002344;28;20037;-69
2022/08/02 01:14:14;;;;;;;3.50;3.20;;;;;;;;;;5007237;28;20133;-69
2022/08/02 01:16:54;;;;;;;4.00;3.15;;;;;;;;;;5010819;28;20026;-69
2022/08/02 01:19:22;;;;;;;3.75;3.45;;;;;;;;;;5019168;28;20068;-69
2022/08/02 01:22:13;;;;;;;4.53;3.38;;;;;;;;;;5030405;28;20036;-70
2022/08/02 01:25:09;;;;;;;3.55;3.22;;;;;;;;;;5030570;28;20554;-69
2022/08/02 01:28:12;;;;;;;4.45;3.45;;;;;;;;;;5023156;28;20238;-69
2022/08/02 01:30:40;;;;;;;3.67;3.33;;;;;;;;;;5021271;28;20033;-69
2022/08/02 01:33:06;;;;;;;4.05;3.42;;;;;;;;;;5014341;28;20048;-69
2022/08/02 01:35:44;;;;;;;3.40;3.10;;;;;;;;;;5002931;28;20026;-69
2022/08/02 01:38:37;;;;;;;3.83;3.47;;;;;;;;;;5017667;28;20033;-69
2022/08/02 01:41:06;;;;;;;4.18;3.50;;;;;;;;;;5014240;28;20522;-69
2022/08/02 01:43:33;;;;;;;4.00;3.47;;;;;;;;;;5008834;28;20034;-69
2022/08/02 01:45:59;;;;;;;3.92;3.53;;;;;;;;;;5010167;28;20033;-69
2022/08/02 01:48:27;;;;;;;4.43;3.60;;;;;;;;;;5005143;28;20027;-70
2022/08/02 01:50:53;;;;;;;4.28;3.63;;;;;;;;;;5023264;28;20029;-69
2022/08/02 01:53:21;;;;;;;4.68;3.45;;;;;;;;;;5010162;28;20027;-69
2022/08/02 01:55:50;;;;;;;4.05;3.65;;;;;;;;;;5010078;28;20033;-69
2022/08/02 01:58:17;;;;;;;4.05;3.38;;;;;;;;;;5017129;28;20078;-69
2022/08/02 02:00:44;;;;;;;5.22;3.60;;;;;;;;;;5022665;28;20522;-69
2022/08/02 02:03:14;;;;;;;3.65;3.33;;;;;;;;;;5011563;28;20355;-69
2022/08/02 02:05:42;;;;;;;4.63;3.78;;;;;;;;;;5009368;28;20029;-69
2022/08/02 02:08:08;;;;;;;3.75;3.40;;;;;;;;;;5017293;28;20108;-69
2022/08/02 02:10:37;;;;;;;3.75;3.35;;;;;;;;;;5017184;28;20030;-69
2022/08/02 02:13:06;;;;;;;4.10;3.17;;;;;;;;;;5010304;28;20584;-69
2022/08/02 02:15:33;;;;;;;5.80;3.20;;;;;;;;;;5010261;28;20038;-69
2022/08/02 02:18:00;;;;;;;4.05;3.70;;;;;;;;;;5016131;28;20021;-69
2022/08/02 02:20:26;;;;;;;4.13;3.60;;;;;;;;;;5021400;28;20021;-69
2022/08/02 02:22:53;;;;;;;4.50;3.75;;;;;;;;;;5030095;28;20057;-69
2022/08/02 02:25:20;;;;;;;4.90;4.13;;;;;;;;;;5029742;28;20031;-69
2022/08/02 02:28:07;;;;;;;3.70;3.40;;;;;;;;;;5027496;28;20044;-69
2022/08/02 02:30:33;;;;;;;3.58;3.28;;;;;;;;;;5013510;28;20179;-69
2022/08/02 02:33:00;;;;;;;5.00;3.55;;;;;;;;;;5029876;28;20029;-69
2022/08/02 02:35:35;;;;;;;6.32;3.80;;;;;;;;;;5029803;28;20033;-70
2022/08/02 02:38:03;;;;;;;4.50;3.47;;;;;;;;;;5025203;28;20035;-69
2022/08/02 02:40:30;;;;;;;5.78;3.97;;;;;;;;;;5029153;28;20533;-69
2022/08/02 02:42:59;;;;;;;3.97;3.58;;;;;;;;;;5029698;28;20060;-69
2022/08/02 02:45:25;;;;;;;4.95;3.78;;;;;;;;;;5029542;28;20037;-69
2022/08/02 02:47:53;;;;;;;5.20;3.60;;;;;;;;;;5027703;28;20453;-70
2022/08/02 02:50:21;;;;;;;4.78;3.83;;;;;;;;;;5015241;28;20037;-70
2022/08/02 02:52:47;;;;;;;6.68;4.03;;;;;;;;;;5009571;28;20034;-69
2022/08/02 02:55:13;;;;;;;5.07;3.90;;;;;;;;;;5009600;28;20028;-69
2022/08/02 02:57:39;;;;;;;4.90;3.75;;;;;;;;;;5008749;28;20034;-69
2022/08/02 03:00:10;;;;;;;6.10;4.05;;;;;;;;;;5016381;28;20088;-69
2022/08/02 03:02:38;;;;;;;4.70;4.00;;;;;;;;;;5002115;28;20442;-69
2022/08/02 03:05:06;;;;;;;4.03;3.63;;;;;;;;;;5009302;28;20423;-69
2022/08/02 03:07:32;;;;;;;6.30;3.80;;;;;;;;;;5007498;28;20117;-69
2022/08/02 03:09:58;;;;;;;4.00;3.47;;;;;;;;;;5017178;28;20041;-69
2022/08/02 03:12:24;;;;;;;4.20;3.80;;;;;;;;;;5027880;28;20639;-69
2022/08/02 03:14:50;;;;;;;4.70;3.85;;;;;;;;;;5028949;28;20037;-69
2022/08/02 03:17:15;;;;;;;4.38;3.95;;;;;;;;;;5027038;28;20120;-69
2022/08/02 03:19:40;;;;;;;4.40;4.00;;;;;;;;;;4998180;28;20111;-69
2022/08/02 03:22:06;;;;;;;7.72;3.90;;;;;;;;;;5020655;28;20116;-69
2022/08/02 03:24:31;;;;;;;4.47;4.05;;;;;;;;;;5009312;28;20029;-69
2022/08/02 03:26:56;;;;;;;5.22;4.30;;;;;;;;;;5009384;28;20642;-69
2022/08/02 03:29:22;;;;;;;4.63;4.22;;;;;;;;;;5016092;28;20108;-69
2022/08/02 03:31:47;;;;;;;5.50;4.45;;;;;;;;;;5028873;28;20037;-69
2022/08/02 03:34:13;;;;;;;5.15;3.90;;;;;;;;;;5029016;28;20021;-69
2022/08/02 03:36:40;;;;;;;6.22;4.40;;;;;;;;;;5028891;28;20104;-69
2022/08/02 03:39:06;;;;;;;4.32;3.92;;;;;;;;;;5021083;28;20104;-69
2022/08/02 03:41:32;;;;;;;5.75;4.13;;;;;;;;;;4993993;28;20541;-69
2022/08/02 03:43:58;;;;;;;7.63;4.40;;;;;;;;;;5009062;28;20029;-69
2022/08/02 03:46:24;;;;;;;5.82;4.03;;;;;;;;;;5009082;28;20026;-69
2022/08/02 03:48:50;;;;;;;4.43;3.83;;;;;;;;;;5013750;28;20029;-69
2022/08/02 03:51:16;;;;;;;5.88;4.40;;;;;;;;;;5010796;28;20131;-69
2022/08/02 03:53:42;;;;;;;4.90;4.20;;;;;;;;;;5009056;28;20027;-69
2022/08/02 03:56:08;;;;;;;4.97;4.20;;;;;;;;;;5008719;28;20036;-69
2022/08/02 03:58:33;;;;;;;6.05;4.13;;;;;;;;;;5011475;28;20025;-69
2022/08/02 04:00:59;;;;;;;5.55;4.70;;;;;;;;;;5016823;28;20029;-69
2022/08/02 04:03:25;;;;;;;5.45;3.83;;;;;;;;;;5009733;28;20026;-69
2022/08/02 04:05:51;;;;;;;5.60;3.85;;;;;;;;;;5008657;28;20132;-69
2022/08/02 04:08:17;;;;;;;7.53;4.10;;;;;;;;;;5002440;28;20109;-69
2022/08/02 04:13:31;;;;;;;4.20;3.80;;;;;;;;;;5009090;28;20041;-69
2022/08/02 04:16:24;;;;;;;7.05;4.20;;;;;;;;;;5008771;28;20036;-69
2022/08/02 04:18:54;;;;;;;4.70;3.93;;;;;;;;;;5013794;28;20029;-69
2022/08/02 04:21:22;;;;;;;5.10;4.47;;;;;;;;;;5019968;28;20258;-69
2022/08/02 04:23:50;;;;;;;8.00;4.10;;;;;;;;;;5028682;28;20364;-69
2022/08/02 04:26:16;;;;;;;4.47;4.07;;;;;;;;;;5028529;28;20025;-69
2022/08/02 04:28:42;;;;;;;6.80;5.30;;;;;;;;;;5017140;28;20025;-69
2022/08/02 04:31:08;;;;;;;16.30;8.45;;;;;;;;;;5023672;28;20048;-69
2022/08/02 04:33:35;;;;;;;17.73;7.72;;;;;;;;;;5032438;28;20470;-69
2022/08/02 04:36:01;;;;;;;10.25;6.35;;;;;;;;;;5010535;28;20375;-69
2022/08/02 04:38:26;;;;;;;6.47;4.97;;;;;;;;;;5013365;28;20033;-69
2022/08/02 04:40:54;;;;;;;5.63;4.50;;;;;;;;;;5023001;28;20772;-69
2022/08/02 04:43:20;;;;;;;5.15;4.65;;;;;;;;;;5023799;28;20574;-69
2022/08/02 04:45:50;;;;;;;4.65;4.25;;;;;;;;;;5032153;28;20108;-69
2022/08/02 04:48:15;;;;;;;4.90;4.13;;;;;;;;;;5026526;28;20379;-70
2022/08/02 04:50:40;;;;;;;6.97;5.00;;;;;;;;;;5023416;28;20033;-70
2022/08/02 04:53:06;;;;;;;5.40;4.82;;;;;;;;;;5032123;28;20041;-69
2022/08/02 04:55:31;;;;;;;5.88;4.55;;;;;;;;;;5031883;28;20641;-70
2022/08/02 04:57:57;;;;;;;7.43;5.85;;;;;;;;;;5027605;28;20041;-70
2022/08/02 05:00:23;;;;;;;9.68;5.82;;;;;;;;;;5022408;28;20053;-72
2022/08/02 05:02:49;;;;;;;9.23;5.00;;;;;;;;;;5019750;28;20034;-71
2022/08/02 05:05:15;;;;;;;6.90;4.80;;;;;;;;;;5009242;28;20472;-71
2022/08/02 05:07:40;;;;;;;7.85;4.20;;;;;;;;;;5005515;28;20030;-72
2022/08/02 05:10:05;;;;;;;5.75;4.53;;;;;;;;;;5007560;28;20075;-71
2022/08/02 05:12:31;;;;;;;5.05;4.57;;;;;;;;;;5027616;28;20093;-71
2022/08/02 05:14:56;;;;;;;7.30;4.88;;;;;;;;;;5002347;28;20022;-71
2022/08/02 05:17:21;;;;;;;6.55;4.95;;;;;;;;;;5004644;28;20026;-72
2022/08/02 05:19:46;;;;;;;5.85;5.03;;;;;;;;;;5018428;28;20072;-72
2022/08/02 05:22:12;;;;;;;6.13;4.88;;;;;;;;;;5016895;28;20063;-72
2022/08/02 05:24:37;;;;;;;8.40;4.97;;;;;;;;;;5016206;28;20124;-72
2022/08/02 05:27:02;;;;;;;9.45;5.50;;;;;;;;;;5004906;28;20029;-71
2022/08/02 05:29:28;;;;;;;7.72;5.50;;;;;;;;;;5016018;28;20029;-72
2022/08/02 05:31:53;;;;;;;6.03;5.13;;;;;;;;;;5010747;28;20109;-72
2022/08/02 05:34:19;;;;;;;6.20;4.78;;;;;;;;;;5008991;28;20068;-73
2022/08/02 05:36:44;;;;;;;8.50;5.25;;;;;;;;;;5010528;28;20025;-72
2022/08/02 05:39:09;;;;;;;12.82;5.25;;;;;;;;;;5005871;28;20026;-72
2022/08/02 05:41:35;;;;;;;11.23;5.28;;;;;;;;;;5008983;28;20097;-72
2022/08/02 05:44:01;;;;;;;8.07;5.38;;;;;;;;;;5009514;28;20479;-72
2022/08/02 05:46:27;;;;;;;10.73;5.60;;;;;;;;;;5009233;28;20034;-72
2022/08/02 05:48:52;;;;;;;13.35;6.00;;;;;;;;;;5003241;28;20019;-72
2022/08/02 05:51:37;;;;;;;10.52;5.60;;;;;;;;;;5025795;28;20029;-72
2022/08/02 05:54:18;;;;;;;8.55;5.70;;;;;;;;;;5013008;28;20029;-72
2022/08/02 05:56:52;;;;;;;7.75;5.43;;;;;;;;;;5001043;28;20029;-72
2022/08/02 05:59:39;;;;;;;6.88;5.22;;;;;;;;;;5002597;28;20030;-71
2022/08/02 06:02:36;;;;;;;6.22;5.30;;;;;;;;;;5002279;28;20037;-72
2022/08/02 06:05:10;;;;;;;9.15;5.38;;;;;;;;;;5006799;28;20025;-71
2022/08/02 06:07:39;;;;;;;9.70;5.05;;;;;;;;;;5002569;28;20026;-71
2022/08/02 06:10:06;;;;;;;7.82;5.25;;;;;;;;;;5005279;28;20026;-71
2022/08/02 06:12:36;;;;;;;8.70;5.85;;;;;;;;;;5004880;28;20038;-72
2022/08/02 06:15:03;;;;;;;6.90;5.53;;;;;;;;;;5000822;28;20037;-72
2022/08/02 06:17:30;;;;;;;6.05;5.10;;;;;;;;;;5009340;28;20040;-72
2022/08/02 06:19:59;;;;;;;6.30;5.03;;;;;;;;;;4971327;28;20038;-72
2022/08/02 06:22:26;;;;;;;7.57;5.13;;;;;;;;;;4996793;28;20484;-72
2022/08/02 06:24:53;;;;;;;6.93;4.60;;;;;;;;;;4995919;28;20566;-72
2022/08/02 06:27:19;;;;;;;6.90;5.00;;;;;;;;;;5013741;28;20079;-71
2022/08/02 06:29:47;;;;;;;5.45;4.80;;;;;;;;;;5006691;28;20055;-72
2022/08/02 06:32:16;;;;;;;8.68;5.05;;;;;;;;;;4990577;28;20038;-71
2022/08/02 06:34:42;;;;;;;6.53;5.25;;;;;;;;;;4999265;28;20097;-72
2022/08/02 06:37:26;;;;;;;6.55;4.28;;;;;;;;;;5002222;28;20167;-72
2022/08/02 06:40:17;;;;;;;6.90;4.20;;;;;;;;;;4991129;28;20350;-72
2022/08/02 06:42:49;;;;;;;4.47;3.78;;;;;;;;;;4993840;28;20454;-72
2022/08/02 06:45:14;;;;;;;7.85;4.88;;;;;;;;;;5011244;28;20038;-72
2022/08/02 06:47:40;;;;;;;6.32;4.20;;;;;;;;;;4997139;28;20049;-72
2022/08/02 06:50:06;;;;;;;4.75;4.25;;;;;;;;;;5009953;28;20044;-72
2022/08/02 06:52:31;;;;;;;8.25;4.28;;;;;;;;;;5015895;28;21922;-72
2022/08/02 06:55:01;;;;;;;7.45;5.05;;;;;;;;;;5005249;28;20030;-73
2022/08/02 06:57:28;;;;;;;6.25;4.18;;;;;;;;;;5021695;28;20033;-73
2022/08/02 06:59:53;;;;;;;14.52;6.88;;;;;;;;;;5002418;28;20369;-71
2022/08/02 07:02:19;;;;;;;9.15;4.53;;;;;;;;;;5012968;28;20036;-72
2022/08/02 07:04:44;;;;;;;7.22;4.53;;;;;;;;;;5006114;28;20054;-72
2022/08/02 07:07:09;;;;;;;6.95;3.95;;;;;;;;;;4998129;28;20153;-72
2022/08/02 07:09:35;;;;;;;8.77;4.30;;;;;;;;;;5008993;28;20022;-71
2022/08/02 07:12:00;;;;;;;8.10;4.20;;;;;;;;;;5002023;28;20364;-71
2022/08/02 07:14:26;;;;;;;7.20;4.15;;;;;;;;;;4996550;28;20128;-71
2022/08/02 07:16:52;;;;;;;6.32;4.85;;;;;;;;;;5014479;28;20033;-71
2022/08/02 07:19:17;;;;;;;4.18;3.72;;;;;;;;;;5012714;28;20034;-72
2022/08/02 07:21:42;;;;;;;7.10;4.10;;;;;;;;;;4999823;28;20026;-72
2022/08/02 07:24:08;;;;;;;8.10;3.95;;;;;;;;;;5002091;28;20514;-71
2022/08/02 07:26:33;;;;;;;7.78;3.97;;;;;;;;;;5004011;28;20029;-71
2022/08/02 07:28:59;;;;;;;8.52;4.47;;;;;;;;;;4989093;28;20240;-71
2022/08/02 07:31:24;;;;;;;5.43;3.63;;;;;;;;;;5002666;28;20030;-71
2022/08/02 07:33:49;;;;;;;12.18;4.22;;;;;;;;;;5000984;28;20488;-72
2022/08/02 07:36:14;;;;;;;7.07;4.20;;;;;;;;;;4994335;28;20113;-71
2022/08/02 07:38:40;;;;;;;8.07;3.65;;;;;;;;;;5001209;28;20092;-70
2022/08/02 07:41:05;;;;;;;5.03;3.78;;;;;;;;;;5001600;28;20670;-71
2022/08/02 07:43:30;;;;;;;4.40;4.00;;;;;;;;;;5015132;28;20112;-71
2022/08/02 07:45:56;;;;;;;7.05;3.88;;;;;;;;;;5014338;28;20120;-72
2022/08/02 07:48:21;;;;;;;4.03;3.60;;;;;;;;;;5016648;28;20021;-71
2022/08/02 07:50:48;;;;;;;4.55;3.70;;;;;;;;;;5008514;28;20382;-71
2022/08/02 07:53:13;;;;;;;4.45;3.50;;;;;;;;;;4997457;28;20033;-71
2022/08/02 07:55:39;;;;;;;5.10;3.72;;;;;;;;;;4995696;28;20033;-70
2022/08/02 07:58:04;;;;;;;4.75;3.33;;;;;;;;;;5010967;28;20517;-71
2022/08/02 08:00:30;;;;;;;3.67;3.20;;;;;;;;;;5022208;28;20121;-71
2022/08/02 08:02:55;;;;;;;3.33;2.88;;;;;;;;;;5016688;28;20379;-71
2022/08/02 08:05:22;;;;;;;4.03;2.83;;;;;;;;;;5013764;28;20030;-71
2022/08/02 08:07:47;;;;;;;5.32;2.85;;;;;;;;;;5012021;28;20278;-72
2022/08/02 08:10:13;;;;;;;2.53;2.33;;;;;;;;;;5008205;28;20025;-71
2022/08/02 08:12:38;;;;;;;2.50;2.30;;;;;;;;;;5005727;28;20476;-71
2022/08/02 08:15:04;;;;;;;6.22;2.75;;;;;;;;;;5020450;28;20262;-71
2022/08/02 08:17:29;;;;;;;5.57;2.53;;;;;;;;;;5003994;28;20492;-71
2022/08/02 08:19:55;;;;;;;7.40;2.35;;;;;;;;;;5015319;28;20029;-71
2022/08/02 08:22:20;;;;;;;2.75;2.20;;;;;;;;;;5010430;28;20120;-72
2022/08/02 08:24:46;;;;;;;2.78;1.80;;;;;;;;;;5009517;28;20104;-71
2022/08/02 08:27:14;;;;;;;2.25;2.03;;;;;;;;;;5023049;28;20124;-71
2022/08/02 08:29:41;;;;;;;8.10;2.30;;;;;;;;;;5014247;28;20803;-72
2022/08/02 08:32:07;;;;;;;3.05;1.88;;;;;;;;;;5018961;28;20108;-72
2022/08/02 08:34:33;;;;;;;2.35;1.70;;;;;;;;;;5016538;28;20180;-71
2022/08/02 08:36:59;;;;;;;2.92;1.60;;;;;;;;;;5011571;28;20033;-71
2022/08/02 08:39:24;;;;;;;2.60;1.67;;;;;;;;;;5001508;28;20029;-71
2022/08/02 08:41:50;;;;;;;1.70;1.60;;;;;;;;;;5027781;28;20124;-72
2022/08/02 08:44:15;;;;;;;2.28;1.80;;;;;;;;;;5027920;28;20026;-71
2022/08/02 08:46:42;;;;;;;2.17;1.80;;;;;;;;;;5027558;28;20033;-72
2022/08/02 08:49:15;;;;;;;2.83;1.70;;;;;;;;;;5017427;28;20510;-71
2022/08/02 08:51:42;;;;;;;3.83;1.70;;;;;;;;;;5019827;28;20349;-71
2022/08/02 08:54:15;;;;;;;2.63;1.60;;;;;;;;;;4976188;28;20030;-71
2022/08/02 08:56:42;;;;;;;2.33;1.65;;;;;;;;;;5006108;28;20422;-71
2022/08/02 08:59:07;;;;;;;3.35;1.70;;;;;;;;;;5027201;28;20037;-71
2022/08/02 09:01:33;;;;;;;1.80;1.70;;;;;;;;;;5009811;28;20557;-71
2022/08/02 09:03:58;;;;;;;5.60;1.30;;;;;;;;;;5014388;28;20022;-71
2022/08/02 09:06:24;;;;;;;1.50;1.40;;;;;;;;;;5007932;28;20021;-71
2022/08/02 09:08:49;;;;;;;1.80;1.40;;;;;;;;;;4997492;28;20037;-71
2022/08/02 09:11:16;;;;;;;7.97;1.97;;;;;;;;;;4995305;28;20029;-71
2022/08/02 09:13:59;;;;;;;2.08;1.50;;;;;;;;;;4999399;28;20040;-71
2022/08/02 09:16:30;;;;;;;4.38;1.67;;;;;;;;;;5009645;28;20049;-71
2022/08/02 09:18:56;;;;;;;1.92;1.20;;;;;;;;;;5024323;28;20037;-71
2022/08/02 09:21:21;;;;;;;4.50;1.50;;;;;;;;;;5015556;28;20033;-71
2022/08/02 09:23:49;;;;;;;8.35;1.75;;;;;;;;;;5010265;28;20038;-72
2022/08/02 09:26:17;;;;;;;1.40;1.20;;;;;;;;;;4993747;28;20033;-70
2022/08/02 09:28:45;;;;;;;2.00;1.10;;;;;;;;;;5026208;28;20403;-70
2022/08/02 09:31:23;;;;;;;2.10;1.40;;;;;;;;;;5020268;28;20581;-72
2022/08/02 09:33:57;;;;;;;1.90;1.50;;;;;;;;;;5007461;28;20042;-71
2022/08/02 09:36:23;;;;;;;1.95;1.25;;;;;;;;;;5014259;28;20087;-71
2022/08/02 09:38:56;;;;;;;3.58;1.52;;;;;;;;;;5008110;28;20240;-70
2022/08/02 09:41:27;;;;;;;1.83;1.42;;;;;;;;;;5018172;28;20219;-71
2022/08/02 09:43:53;;;;;;;;;;;;;;;;;;5015420;28;20022;-70
2022/08/02 09:46:20;;;;;;;1.52;1.20;;;;;;;;;;5024919;28;20359;-70
2022/08/02 09:48:52;;;;;;;2.15;1.20;;;;;;;;;;5027195;28;20029;-71
2022/08/02 09:51:45;;;;;;;2.30;1.27;;;;;;;;;;5018974;28;20029;-72
2022/08/02 09:54:18;;;;;;;2.10;1.10;;;;;;;;;;5018343;28;20029;-71
2022/08/02 09:56:58;;;;;;;2.13;1.30;;;;;;;;;;5005738;28;20033;-70
2022/08/02 09:59:24;;;;;;;1.65;1.27;;;;;;;;;;5017406;28;20026;-70
2022/08/02 10:01:51;;;;;;;2.85;1.02;;;;;;;;;;4991885;28;20036;-71
2022/08/02 10:04:22;;;;;;;1.45;1.27;;;;;;;;;;5011526;28;20037;-71
2022/08/02 10:06:49;;;;;;;1.75;1.23;;;;;;;;;;5004841;28;20053;-70
2022/08/02 10:09:16;;;;;;;1.30;1.20;;;;;;;;;;5013579;28;20021;-71
2022/08/02 10:11:41;;;;;;;1.30;1.20;;;;;;;;;;5007936;28;20413;-70
2022/08/02 10:14:09;;;;;;;1.97;1.30;;;;;;;;;;5015682;28;20553;-71
2022/08/02 10:16:37;;;;;;;1.50;1.20;;;;;;;;;;5021805;28;20696;-70
2022/08/02 10:19:03;;;;;;;2.10;1.77;;;;;;;;;;5023563;28;20031;-71
2022/08/02 10:21:43;;;;;;;3.78;1.65;;;;;;;;;;5021101;28;20082;-70
2022/08/02 10:24:36;;;;;;;1.30;1.20;;;;;;;;;;5023145;28;20034;-70
2022/08/02 10:27:03;;;;;;;1.25;1.00;;;;;;;;;;5007548;28;20048;-71
2022/08/02 10:29:35;;;;;;;2.08;0.98;;;;;;;;;;5001077;28;20023;-70
2022/08/02 10:32:24;;;;;;;1.20;1.10;;;;;;;;;;5013619;28;20120;-70
2022/08/02 10:34:57;;;;;;;1.35;1.20;;;;;;;;;;4990070;28;20633;-70
2022/08/02 10:37:28;;;;;;;1.10;1.00;;;;;;;;;;5014838;28;20294;-72
2022/08/02 10:39:56;;;;;;;1.48;1.10;;;;;;;;;;5010747;28;20033;-70
2022/08/02 10:42:45;;;;;;;2.17;1.20;;;;;;;;;;5013537;28;20487;-70
2022/08/02 10:45:14;;;;;;;1.90;1.08;;;;;;;;;;5026478;28;20328;-73
2022/08/02 10:47:55;;;;;;;1.10;1.00;;;;;;;;;;5016806;28;20026;-71
2022/08/02 10:50:41;;;;;;;2.03;1.20;;;;;;;;;;5009141;28;20021;-71
2022/08/02 10:53:29;;;;;;;1.20;1.05;;;;;;;;;;4997202;28;20090;-70
2022/08/02 10:56:03;;;;;;;1.20;1.10;;;;;;;;;;4991062;28;20033;-70
2022/08/02 10:58:33;;;;;;;2.35;1.10;;;;;;;;;;5021955;28;20025;-71
2022/08/02 11:01:28;;;;;;;2.10;1.80;;;;;;;;;;5009301;28;20034;-70
2022/08/02 11:03:57;;;;;;;1.23;1.00;;;;;;;;;;4998448;28;20052;-71
2022/08/02 11:06:23;;;;;;;3.00;1.33;;;;;;;;;;5016275;28;20425;-70
2022/08/02 11:08:48;;;;;;;1.98;1.17;;;;;;;;;;5003328;28;20034;-71
2022/08/02 11:11:17;;;;;;;1.83;1.20;;;;;;;;;;5019245;28;20514;-70
2022/08/02 11:14:07;;;;;;;1.90;1.30;;;;;;;;;;4995794;28;20279;-75
2022/08/02 11:16:54;;;;;;;1.25;1.10;;;;;;;;;;5006748;28;20037;-69
2022/08/02 11:19:21;;;;;;;1.45;1.30;;;;;;;;;;5018818;28;20458;-69
2022/08/02 11:22:15;;;;;;;1.85;1.05;;;;;;;;;;5028521;28;20484;-71
2022/08/02 11:24:41;;;;;;;1.50;1.40;;;;;;;;;;5008213;28;20054;-71
2022/08/02 11:27:08;;;;;;;2.83;1.40;;;;;;;;;;4998895;28;20034;-68
2022/08/02 11:29:44;;;;;;;2.67;1.40;;;;;;;;;;5000597;28;20048;-70
2022/08/02 11:32:17;;;;;;;3.03;1.40;;;;;;;;;;5014256;28;20029;-70
2022/08/02 11:34:45;;;;;;;2.80;1.23;;;;;;;;;;5006294;28;20045;-71
2022/08/02 11:37:11;;;;;;;1.63;1.30;;;;;;;;;;5008494;28;20041;-70
2022/08/02 11:39:37;;;;;;;3.97;1.40;;;;;;;;;;5007809;28;20033;-70
2022/08/02 11:42:02;;;;;;;2.13;1.60;;;;;;;;;;5008449;28;20531;-70
2022/08/02 11:44:37;;;;;;;2.15;1.20;;;;;;;;;;5010375;28;20104;-70
2022/08/02 11:47:03;;;;;;;1.85;1.20;;;;;;;;;;5008249;28;20109;-70
2022/08/02 11:49:28;;;;;;;1.73;1.23;;;;;;;;;;5010830;28;20109;-70
2022/08/02 11:51:59;;;;;;;1.40;1.30;;;;;;;;;;5013437;28;20034;-69
2022/08/02 11:54:36;;;;;;;1.70;1.27;;;;;;;;;;4990810;28;20027;-70
2022/08/02 11:57:19;;;;;;;2.60;1.30;;;;;;;;;;5002025;28;20311;-69
2022/08/02 11:59:50;;;;;;;2.92;1.33;;;;;;;;;;5014772;28;20567;-70
2022/08/02 12:02:16;;;;;;;1.73;1.30;;;;;;;;;;5025913;28;20478;-70
2022/08/02 12:04:42;;;;;;;3.63;1.20;;;;;;;;;;5008717;28;20033;-70
2022/08/02 12:07:08;;;;;;;2.42;1.05;;;;;;;;;;4992781;28;20073;-69
2022/08/02 12:09:34;;;;;;;1.23;1.13;;;;;;;;;;5001404;28;20038;-69
2022/08/02 12:12:01;;;;;;;1.30;1.20;;;;;;;;;;5015285;28;20060;-70
2022/08/02 12:14:28;;;;;;;2.25;1.30;;;;;;;;;;5020515;28;20112;-68
2022/08/02 12:19:39;;;;;;;2.63;1.20;;;;;;;;;;5028401;28;20403;-69
2022/08/02 12:22:13;;;;;;;1.63;1.30;;;;;;;;;;5020569;28;20026;-73
2022/08/02 12:24:42;;;;;;;1.40;1.30;;;;;;;;;;5014343;28;20036;-71
2022/08/02 12:27:07;;;;;;;2.55;1.30;;;;;;;;;;5027685;28;20025;-69
2022/08/02 12:29:35;;;;;;;1.23;1.13;;;;;;;;;;5027753;28;20136;-71
2022/08/02 12:32:02;;;;;;;1.17;1.08;;;;;;;;;;5027919;28;20021;-70
2022/08/02 12:34:30;;;;;;;1.27;1.17;;;;;;;;;;5019568;28;20484;-70
2022/08/02 12:37:06;;;;;;;1.63;1.27;;;;;;;;;;5014932;28;20038;-70
2022/08/02 12:39:43;;;;;;;1.42;1.27;;;;;;;;;;4988184;28;20033;-69
2022/08/02 12:42:14;;;;;;;2.00;1.27;;;;;;;;;;4988684;28;20038;-69
2022/08/02 12:44:51;;;;;;;1.33;1.23;;;;;;;;;;4988847;28;20031;-68
2022/08/02 12:47:17;;;;;;;1.33;1.23;;;;;;;;;;5001542;28;20041;-69
2022/08/02 12:49:43;;;;;;;2.35;1.73;;;;;;;;;;5012340;28;20470;-70
2022/08/02 12:52:21;;;;;;;4.68;1.50;;;;;;;;;;5023125;28;20029;-70
2022/08/02 12:54:47;;;;;;;2.72;1.42;;;;;;;;;;5030979;28;20033;-70
2022/08/02 12:57:18;;;;;;;2.53;1.20;;;;;;;;;;5030597;28;20069;-70
2022/08/02 12:59:50;;;;;;;1.60;1.30;;;;;;;;;;5014395;28;20034;-70
2022/08/02 13:02:16;;;;;;;1.50;1.20;;;;;;;;;;5011167;28;20030;-71
2022/08/02 13:04:42;;;;;;;2.03;1.40;;;;;;;;;;5022594;28;20040;-69
2022/08/02 13:07:07;;;;;;;1.50;1.30;;;;;;;;;;5030301;28;20037;-69
2022/08/02 13:09:41;;;;;;;2.58;1.30;;;;;;;;;;5029994;28;20025;-71
2022/08/02 13:12:07;;;;;;;1.58;1.27;;;;;;;;;;5013198;28;20037;-70
2022/08/02 13:14:33;;;;;;;1.38;1.27;;;;;;;;;;5011321;28;20029;-70
2022/08/02 13:16:59;;;;;;;1.65;1.30;;;;;;;;;;5016559;28;20037;-70
2022/08/02 13:19:25;;;;;;;2.22;1.70;;;;;;;;;;5021922;28;20033;-70
2022/08/02 13:21:51;;;;;;;2.75;1.45;;;;;;;;;;5030378;28;20040;-69
2022/08/02 13:24:17;;;;;;;2.65;1.38;;;;;;;;;;5012218;28;20022;-69
2022/08/02 13:26:42;;;;;;;2.38;1.50;;;;;;;;;;5010109;28;20033;-70
2022/08/02 13:29:09;;;;;;;2.45;1.35;;;;;;;;;;5009824;28;20037;-70
2022/08/02 13:31:36;;;;;;;2.65;1.30;;;;;;;;;;5021489;28;20506;-69
2022/08/02 13:34:03;;;;;;;3.90;1.45;;;;;;;;;;5030322;28;20037;-71
2022/08/02 13:36:28;;;;;;;2.65;1.58;;;;;;;;;;5011097;28;20073;-70
2022/08/02 13:38:54;;;;;;;2.10;1.45;;;;;;;;;;5010476;28;20442;-70
2022/08/02 13:41:19;;;;;;;1.77;1.38;;;;;;;;;;5009962;28;20032;-70
2022/08/02 13:43:45;;;;;;;1.50;1.20;;;;;;;;;;5014501;28;20036;-69
2022/08/02 13:46:10;;;;;;;2.28;1.23;;;;;;;;;;5021686;28;20087;-68
2022/08/02 13:48:35;;;;;;;1.40;1.30;;;;;;;;;;5011850;28;20034;-69
2022/08/02 13:51:01;;;;;;;1.67;1.30;;;;;;;;;;5010004;28;20037;-69
2022/08/02 13:53:26;;;;;;;1.70;1.45;;;;;;;;;;5009008;28;20541;-69
2022/08/02 13:55:52;;;;;;;2.13;1.40;;;;;;;;;;5018993;28;20448;-69
2022/08/02 13:58:17;;;;;;;6.40;1.60;;;;;;;;;;5027910;28;20029;-69
2022/08/02 14:00:42;;;;;;;1.55;1.45;;;;;;;;;;5011020;28;20041;-68
2022/08/02 14:03:08;;;;;;;1.67;1.40;;;;;;;;;;5009638;28;20080;-69
2022/08/02 14:05:38;;;;;;;1.55;1.45;;;;;;;;;;5010193;28;20100;-69
2022/08/02 14:08:03;;;;;;;1.98;1.60;;;;;;;;;;5016108;28;20414;-69
2022/08/02 14:10:29;;;;;;;2.45;1.50;;;;;;;;;;5021089;28;20051;-69
2022/08/02 14:12:54;;;;;;;1.43;1.30;;;;;;;;;;5010836;28;20052;-69
2022/08/02 14:15:19;;;;;;;3.03;1.40;;;;;;;;;;5009811;28;20367;-70
2022/08/02 14:17:45;;;;;;;1.90;1.55;;;;;;;;;;5015337;28;20748;-69
2022/08/02 14:20:11;;;;;;;2.53;1.48;;;;;;;;;;5026293;28;20056;-69
2022/08/02 14:22:37;;;;;;;1.40;1.30;;;;;;;;;;5021589;28;20033;-69
2022/08/02 14:25:02;;;;;;;1.60;1.50;;;;;;;;;;5018184;28;20107;-69
2022/08/02 14:27:29;;;;;;;2.33;1.50;;;;;;;;;;5009158;28;20036;-69
2022/08/02 14:29:56;;;;;;;1.50;1.40;;;;;;;;;;5008068;28;20084;-69
2022/08/02 14:32:21;;;;;;;1.75;1.65;;;;;;;;;;5019223;28;20022;-68
2022/08/02 14:34:46;;;;;;;2.25;1.40;;;;;;;;;;5021223;28;20095;-71
2022/08/02 14:37:12;;;;;;;1.65;1.45;;;;;;;;;;5017760;28;20057;-69
2022/08/02 14:39:37;;;;;;;1.77;1.67;;;;;;;;;;4991206;28;20494;-69
2022/08/02 14:42:02;;;;;;;2.13;1.48;;;;;;;;;;5008935;28;20034;-70
2022/08/02 14:44:28;;;;;;;4.30;1.83;;;;;;;;;;5009603;28;20411;-69
2022/08/02 14:46:53;;;;;;;3.42;1.88;;;;;;;;;;5008637;28;20557;-69
2022/08/02 14:49:20;;;;;;;1.55;1.45;;;;;;;;;;5017427;28;20049;-68
2022/08/02 14:51:45;;;;;;;3.92;1.55;;;;;;;;;;5028472;28;20402;-69
2022/08/02 14:54:11;;;;;;;4.05;1.80;;;;;;;;;;5028750;28;20025;-69
2022/08/02 14:56:36;;;;;;;1.60;1.50;;;;;;;;;;5021313;28;20037;-69